sensor_id;sensor_type;location;lat;lon;timestamp;P1;durP1;ratioP1;P2;durP2;ratioP2
28373;SDS011;15616;40.148;-102.718;2022-12-05T00:00:44;10.43;;;5.60;;
28373;SDS011;15616;40.148;-102.718;2022-12-05T00:03:10;8.85;;;5.50;;
28373;SDS011;15616;40.148;-102.718;2022-12-05T00:05:38;8.63;;;5.35;;
28373;SDS011;15616;40.148;-102.718;2022-12-05T00:08:06;7.53;;;5.22;;
28373;SDS011;15616;40.148;-102.718;2022-12-05T00:10:34;8.35;;;4.70;;
28373;SDS011;15616;40.148;-102.718;2022-12-05T00:13:01;8.68;;;5.78;;
28373;SDS011;15616;40.148;-102.718;2022-12-05T00:15:27;9.25;;;5.80;;
28373;SDS011;15616;40.148;-102.718;2022-12-05T00:17:53;8.07;;;5.20;;
28373;SDS011;15616;40.148;-102.718;2022-12-05T00:20:19;8.90;;;5.50;;
28373;SDS011;15616;40.148;-102.718;2022-12-05T00:22:45;8.35;;;5.30;;
28373;SDS011;15616;40.148;-102.718;2022-12-05T00:25:11;8.80;;;5.40;;
28373;SDS011;15616;40.148;-102.718;2022-12-05T00:27:37;8.70;;;5.00;;
28373;SDS011;15616;40.148;-102.718;2022-12-05T00:30:04;7.97;;;5.60;;
28373;SDS011;15616;40.148;-102.718;2022-12-05T00:32:30;9.15;;;5.47;;
28373;SDS011;15616;40.148;-102.718;2022-12-05T00:34:56;8.00;;;5.38;;
28373;SDS011;15616;40.148;-102.718;2022-12-05T00:37:22;7.82;;;5.10;;
28373;SDS011;15616;40.148;-102.718;2022-12-05T00:39:49;9.23;;;5.75;;
28373;SDS011;15616;40.148;-102.718;2022-12-05T00:42:15;8.15;;;5.10;;
28373;SDS011;15616;40.148;-102.718;2022-12-05T00:44:41;8.20;;;5.65;;
28373;SDS011;15616;40.148;-102.718;2022-12-05T00:47:06;7.68;;;5.15;;
28373;SDS011;15616;40.148;-102.718;2022-12-05T00:49:32;8.02;;;5.43;;
28373;SDS011;15616;40.148;-102.718;2022-12-05T00:51:58;8.45;;;5.35;;
28373;SDS011;15616;40.148;-102.718;2022-12-05T00:54:24;7.45;;;5.03;;
28373;SDS011;15616;40.148;-102.718;2022-12-05T00:56:50;8.13;;;5.45;;
28373;SDS011;15616;40.148;-102.718;2022-12-05T00:59:20;8.20;;;5.25;;
28373;SDS011;15616;40.148;-102.718;2022-12-05T01:01:48;8.60;;;5.13;;
28373;SDS011;15616;40.148;-102.718;2022-12-05T01:04:16;7.70;;;5.18;;
28373;SDS011;15616;40.148;-102.718;2022-12-05T01:06:47;7.95;;;5.10;;
28373;SDS011;15616;40.148;-102.718;2022-12-05T01:09:14;8.65;;;5.50;;
28373;SDS011;15616;40.148;-102.718;2022-12-05T01:11:42;9.15;;;5.60;;
28373;SDS011;15616;40.148;-102.718;2022-12-05T01:14:09;8.68;;;5.50;;
28373;SDS011;15616;40.148;-102.718;2022-12-05T01:16:37;8.25;;;5.45;;
28373;SDS011;15616;40.148;-102.718;2022-12-05T01:19:07;8.10;;;5.47;;
28373;SDS011;15616;40.148;-102.718;2022-12-05T01:21:37;9.32;;;4.95;;
28373;SDS011;15616;40.148;-102.718;2022-12-05T01:24:03;8.23;;;5.47;;
28373;SDS011;15616;40.148;-102.718;2022-12-05T01:26:29;8.73;;;5.82;;
28373;SDS011;15616;40.148;-102.718;2022-12-05T01:28:55;8.27;;;5.32;;
28373;SDS011;15616;40.148;-102.718;2022-12-05T01:33:48;8.27;;;5.20;;
28373;SDS011;15616;40.148;-102.718;2022-12-05T01:36:15;8.63;;;5.18;;
28373;SDS011;15616;40.148;-102.718;2022-12-05T01:38:42;8.13;;;5.43;;
28373;SDS011;15616;40.148;-102.718;2022-12-05T01:41:12;8.10;;;5.40;;
28373;SDS011;15616;40.148;-102.718;2022-12-05T01:43:53;7.40;;;4.90;;
28373;SDS011;15616;40.148;-102.718;2022-12-05T01:46:19;9.23;;;5.20;;
28373;SDS011;15616;40.148;-102.718;2022-12-05T01:48:45;7.50;;;5.15;;
28373;SDS011;15616;40.148;-102.718;2022-12-05T01:51:12;8.55;;;5.60;;
28373;SDS011;15616;40.148;-102.718;2022-12-05T01:53:38;8.18;;;5.60;;
28373;SDS011;15616;40.148;-102.718;2022-12-05T01:56:03;8.20;;;4.85;;
28373;SDS011;15616;40.148;-102.718;2022-12-05T01:58:30;9.68;;;5.60;;
28373;SDS011;15616;40.148;-102.718;2022-12-05T02:00:59;7.82;;;5.30;;
28373;SDS011;15616;40.148;-102.718;2022-12-05T02:03:26;10.55;;;5.47;;
28373;SDS011;15616;40.148;-102.718;2022-12-05T02:05:52;8.07;;;5.50;;
28373;SDS011;15616;40.148;-102.718;2022-12-05T02:08:21;7.30;;;4.95;;
28373;SDS011;15616;40.148;-102.718;2022-12-05T02:10:48;9.02;;;5.65;;
28373;SDS011;15616;40.148;-102.718;2022-12-05T02:13:22;7.72;;;5.30;;
28373;SDS011;15616;40.148;-102.718;2022-12-05T02:16:17;9.65;;;5.68;;
28373;SDS011;15616;40.148;-102.718;2022-12-05T02:30:22;8.93;;;5.32;;
28373;SDS011;15616;40.148;-102.718;2022-12-05T02:35:51;8.95;;;5.15;;
28373;SDS011;15616;40.148;-102.718;2022-12-05T02:41:24;7.78;;;5.13;;
28373;SDS011;15616;40.148;-102.718;2022-12-05T02:44:20;8.40;;;5.53;;
28373;SDS011;15616;40.148;-102.718;2022-12-05T02:46:57;7.85;;;5.28;;
28373;SDS011;15616;40.148;-102.718;2022-12-05T02:49:25;8.00;;;4.90;;
28373;SDS011;15616;40.148;-102.718;2022-12-05T02:51:56;8.45;;;5.28;;
28373;SDS011;15616;40.148;-102.718;2022-12-05T02:54:28;8.73;;;5.35;;
28373;SDS011;15616;40.148;-102.718;2022-12-05T02:56:57;8.40;;;5.25;;
28373;SDS011;15616;40.148;-102.718;2022-12-05T02:59:24;10.60;;;5.70;;
28373;SDS011;15616;40.148;-102.718;2022-12-05T03:01:51;7.97;;;5.18;;
28373;SDS011;15616;40.148;-102.718;2022-12-05T03:04:17;8.00;;;5.13;;
28373;SDS011;15616;40.148;-102.718;2022-12-05T03:06:53;8.35;;;5.20;;
28373;SDS011;15616;40.148;-102.718;2022-12-05T03:09:25;9.18;;;5.68;;
28373;SDS011;15616;40.148;-102.718;2022-12-05T03:12:39;8.07;;;5.43;;
28373;SDS011;15616;40.148;-102.718;2022-12-05T03:15:19;8.27;;;5.35;;
28373;SDS011;15616;40.148;-102.718;2022-12-05T03:18:09;7.65;;;4.97;;
28373;SDS011;15616;40.148;-102.718;2022-12-05T03:20:42;8.95;;;5.82;;
28373;SDS011;15616;40.148;-102.718;2022-12-05T03:23:32;6.93;;;4.88;;
28373;SDS011;15616;40.148;-102.718;2022-12-05T03:31:14;8.60;;;5.32;;
28373;SDS011;15616;40.148;-102.718;2022-12-05T03:33:47;7.70;;;5.13;;
28373;SDS011;15616;40.148;-102.718;2022-12-05T03:39:28;8.30;;;5.38;;
28373;SDS011;15616;40.148;-102.718;2022-12-05T03:41:52;8.45;;;5.32;;
28373;SDS011;15616;40.148;-102.718;2022-12-05T03:44:20;8.77;;;5.40;;
28373;SDS011;15616;40.148;-102.718;2022-12-05T03:49:46;8.38;;;5.15;;
28373;SDS011;15616;40.148;-102.718;2022-12-05T03:52:28;9.90;;;5.20;;
28373;SDS011;15616;40.148;-102.718;2022-12-05T03:55:01;7.70;;;5.05;;
28373;SDS011;15616;40.148;-102.718;2022-12-05T03:57:35;9.13;;;5.40;;
28373;SDS011;15616;40.148;-102.718;2022-12-05T04:00:16;8.27;;;5.22;;
28373;SDS011;15616;40.148;-102.718;2022-12-05T04:02:47;7.90;;;4.93;;
28373;SDS011;15616;40.148;-102.718;2022-12-05T04:05:25;7.50;;;5.15;;
28373;SDS011;15616;40.148;-102.718;2022-12-05T04:08:02;7.28;;;4.95;;
28373;SDS011;15616;40.148;-102.718;2022-12-05T04:10:32;7.30;;;4.70;;
28373;SDS011;15616;40.148;-102.718;2022-12-05T04:16:03;7.93;;;5.10;;
28373;SDS011;15616;40.148;-102.718;2022-12-05T04:19:03;8.23;;;5.18;;
28373;SDS011;15616;40.148;-102.718;2022-12-05T04:21:38;8.95;;;5.43;;
28373;SDS011;15616;40.148;-102.718;2022-12-05T04:24:09;8.38;;;4.80;;
28373;SDS011;15616;40.148;-102.718;2022-12-05T04:29:52;8.02;;;4.97;;
28373;SDS011;15616;40.148;-102.718;2022-12-05T04:32:29;8.02;;;5.20;;
28373;SDS011;15616;40.148;-102.718;2022-12-05T04:35:05;8.18;;;5.20;;
28373;SDS011;15616;40.148;-102.718;2022-12-05T04:37:39;7.85;;;5.13;;
28373;SDS011;15616;40.148;-102.718;2022-12-05T04:40:11;8.23;;;5.53;;
28373;SDS011;15616;40.148;-102.718;2022-12-05T04:42:50;8.50;;;5.05;;
28373;SDS011;15616;40.148;-102.718;2022-12-05T04:45:18;8.35;;;5.22;;
28373;SDS011;15616;40.148;-102.718;2022-12-05T04:47:49;7.53;;;4.65;;
28373;SDS011;15616;40.148;-102.718;2022-12-05T04:50:20;8.43;;;5.00;;
28373;SDS011;15616;40.148;-102.718;2022-12-05T04:52:49;9.02;;;5.00;;
28373;SDS011;15616;40.148;-102.718;2022-12-05T04:55:22;7.93;;;5.47;;
28373;SDS011;15616;40.148;-102.718;2022-12-05T04:58:07;8.57;;;5.18;;
28373;SDS011;15616;40.148;-102.718;2022-12-05T05:00:43;8.02;;;5.15;;
28373;SDS011;15616;40.148;-102.718;2022-12-05T05:03:18;7.00;;;5.00;;
28373;SDS011;15616;40.148;-102.718;2022-12-05T05:05:54;7.80;;;4.97;;
28373;SDS011;15616;40.148;-102.718;2022-12-05T05:08:23;6.90;;;4.78;;
28373;SDS011;15616;40.148;-102.718;2022-12-05T05:10:59;7.03;;;4.68;;
28373;SDS011;15616;40.148;-102.718;2022-12-05T05:13:31;8.05;;;5.15;;
28373;SDS011;15616;40.148;-102.718;2022-12-05T05:15:57;7.95;;;4.95;;
28373;SDS011;15616;40.148;-102.718;2022-12-05T05:18:23;7.32;;;5.00;;
28373;SDS011;15616;40.148;-102.718;2022-12-05T05:20:49;8.60;;;5.05;;
28373;SDS011;15616;40.148;-102.718;2022-12-05T05:23:15;8.05;;;5.05;;
28373;SDS011;15616;40.148;-102.718;2022-12-05T05:25:41;8.52;;;5.25;;
28373;SDS011;15616;40.148;-102.718;2022-12-05T05:28:07;7.28;;;4.85;;
28373;SDS011;15616;40.148;-102.718;2022-12-05T05:30:33;8.48;;;5.15;;
28373;SDS011;15616;40.148;-102.718;2022-12-05T05:32:59;7.50;;;5.07;;
28373;SDS011;15616;40.148;-102.718;2022-12-05T05:35:25;7.47;;;5.22;;
28373;SDS011;15616;40.148;-102.718;2022-12-05T05:37:51;7.90;;;5.15;;
28373;SDS011;15616;40.148;-102.718;2022-12-05T05:40:17;8.60;;;5.53;;
28373;SDS011;15616;40.148;-102.718;2022-12-05T05:42:46;8.23;;;5.22;;
28373;SDS011;15616;40.148;-102.718;2022-12-05T05:45:15;7.35;;;4.90;;
28373;SDS011;15616;40.148;-102.718;2022-12-05T05:47:41;8.48;;;5.15;;
28373;SDS011;15616;40.148;-102.718;2022-12-05T05:50:08;7.45;;;5.13;;
28373;SDS011;15616;40.148;-102.718;2022-12-05T05:52:35;8.82;;;5.00;;
28373;SDS011;15616;40.148;-102.718;2022-12-05T05:55:02;8.18;;;5.38;;
28373;SDS011;15616;40.148;-102.718;2022-12-05T05:57:30;8.70;;;5.75;;
28373;SDS011;15616;40.148;-102.718;2022-12-05T05:59:56;10.23;;;5.53;;
28373;SDS011;15616;40.148;-102.718;2022-12-05T06:02:22;7.45;;;4.97;;
28373;SDS011;15616;40.148;-102.718;2022-12-05T06:04:48;8.38;;;5.20;;
28373;SDS011;15616;40.148;-102.718;2022-12-05T06:07:14;7.60;;;4.78;;
28373;SDS011;15616;40.148;-102.718;2022-12-05T06:09:40;7.50;;;5.05;;
28373;SDS011;15616;40.148;-102.718;2022-12-05T06:12:06;8.23;;;4.85;;
28373;SDS011;15616;40.148;-102.718;2022-12-05T06:14:32;7.13;;;5.28;;
28373;SDS011;15616;40.148;-102.718;2022-12-05T06:16:58;7.30;;;4.85;;
28373;SDS011;15616;40.148;-102.718;2022-12-05T06:19:24;7.70;;;4.95;;
28373;SDS011;15616;40.148;-102.718;2022-12-05T06:21:50;11.48;;;5.30;;
28373;SDS011;15616;40.148;-102.718;2022-12-05T06:24:16;8.82;;;5.55;;
28373;SDS011;15616;40.148;-102.718;2022-12-05T06:26:42;8.35;;;5.07;;
28373;SDS011;15616;40.148;-102.718;2022-12-05T06:29:08;8.45;;;5.18;;
28373;SDS011;15616;40.148;-102.718;2022-12-05T06:31:35;7.60;;;5.10;;
28373;SDS011;15616;40.148;-102.718;2022-12-05T06:34:01;7.88;;;4.97;;
28373;SDS011;15616;40.148;-102.718;2022-12-05T06:36:28;8.07;;;4.78;;
28373;SDS011;15616;40.148;-102.718;2022-12-05T06:38:56;7.57;;;4.90;;
28373;SDS011;15616;40.148;-102.718;2022-12-05T06:41:22;9.00;;;5.50;;
28373;SDS011;15616;40.148;-102.718;2022-12-05T06:43:52;26.08;;;5.40;;
28373;SDS011;15616;40.148;-102.718;2022-12-05T06:46:20;11.70;;;4.90;;
28373;SDS011;15616;40.148;-102.718;2022-12-05T06:48:47;9.98;;;5.20;;
28373;SDS011;15616;40.148;-102.718;2022-12-05T06:51:14;11.50;;;4.70;;
28373;SDS011;15616;40.148;-102.718;2022-12-05T06:53:41;13.10;;;5.20;;
28373;SDS011;15616;40.148;-102.718;2022-12-05T06:56:12;8.88;;;5.13;;
28373;SDS011;15616;40.148;-102.718;2022-12-05T06:58:39;12.35;;;5.40;;
28373;SDS011;15616;40.148;-102.718;2022-12-05T07:01:09;8.80;;;4.85;;
28373;SDS011;15616;40.148;-102.718;2022-12-05T07:03:54;7.43;;;4.60;;
28373;SDS011;15616;40.148;-102.718;2022-12-05T07:06:20;8.18;;;4.90;;
28373;SDS011;15616;40.148;-102.718;2022-12-05T07:08:46;14.00;;;5.40;;
28373;SDS011;15616;40.148;-102.718;2022-12-05T07:11:12;7.78;;;5.18;;
28373;SDS011;15616;40.148;-102.718;2022-12-05T07:13:38;9.05;;;5.22;;
28373;SDS011;15616;40.148;-102.718;2022-12-05T07:16:04;10.75;;;5.20;;
28373;SDS011;15616;40.148;-102.718;2022-12-05T07:18:31;7.80;;;4.95;;
28373;SDS011;15616;40.148;-102.718;2022-12-05T07:20:58;12.15;;;5.13;;
28373;SDS011;15616;40.148;-102.718;2022-12-05T07:23:26;9.90;;;5.30;;
28373;SDS011;15616;40.148;-102.718;2022-12-05T07:25:52;7.93;;;5.00;;
28373;SDS011;15616;40.148;-102.718;2022-12-05T07:28:19;8.55;;;4.63;;
28373;SDS011;15616;40.148;-102.718;2022-12-05T07:30:45;8.85;;;5.07;;
28373;SDS011;15616;40.148;-102.718;2022-12-05T07:33:11;9.35;;;5.18;;
28373;SDS011;15616;40.148;-102.718;2022-12-05T07:35:37;12.73;;;5.28;;
28373;SDS011;15616;40.148;-102.718;2022-12-05T07:38:03;11.23;;;4.80;;
28373;SDS011;15616;40.148;-102.718;2022-12-05T07:40:29;14.57;;;5.20;;
28373;SDS011;15616;40.148;-102.718;2022-12-05T07:42:55;10.65;;;4.93;;
28373;SDS011;15616;40.148;-102.718;2022-12-05T07:45:21;14.40;;;5.43;;
28373;SDS011;15616;40.148;-102.718;2022-12-05T07:47:47;9.20;;;4.90;;
28373;SDS011;15616;40.148;-102.718;2022-12-05T07:50:13;12.40;;;4.93;;
28373;SDS011;15616;40.148;-102.718;2022-12-05T07:52:39;12.52;;;5.38;;
28373;SDS011;15616;40.148;-102.718;2022-12-05T07:55:06;12.52;;;5.47;;
28373;SDS011;15616;40.148;-102.718;2022-12-05T07:57:32;11.02;;;5.00;;
28373;SDS011;15616;40.148;-102.718;2022-12-05T07:59:58;11.13;;;4.90;;
28373;SDS011;15616;40.148;-102.718;2022-12-05T08:02:24;17.45;;;5.32;;
28373;SDS011;15616;40.148;-102.718;2022-12-05T08:04:50;10.27;;;5.13;;
28373;SDS011;15616;40.148;-102.718;2022-12-05T08:07:16;9.05;;;5.65;;
28373;SDS011;15616;40.148;-102.718;2022-12-05T08:09:42;10.40;;;5.07;;
28373;SDS011;15616;40.148;-102.718;2022-12-05T08:12:08;16.20;;;5.40;;
28373;SDS011;15616;40.148;-102.718;2022-12-05T08:14:34;12.55;;;5.07;;
28373;SDS011;15616;40.148;-102.718;2022-12-05T08:17:00;10.85;;;4.75;;
28373;SDS011;15616;40.148;-102.718;2022-12-05T08:19:26;22.00;;;4.80;;
28373;SDS011;15616;40.148;-102.718;2022-12-05T08:21:53;9.27;;;5.38;;
28373;SDS011;15616;40.148;-102.718;2022-12-05T08:24:19;13.27;;;5.22;;
28373;SDS011;15616;40.148;-102.718;2022-12-05T08:26:45;13.13;;;4.88;;
28373;SDS011;15616;40.148;-102.718;2022-12-05T08:29:12;16.83;;;5.05;;
28373;SDS011;15616;40.148;-102.718;2022-12-05T08:31:40;12.27;;;4.82;;
28373;SDS011;15616;40.148;-102.718;2022-12-05T08:34:10;15.25;;;4.78;;
28373;SDS011;15616;40.148;-102.718;2022-12-05T08:36:37;12.65;;;5.10;;
28373;SDS011;15616;40.148;-102.718;2022-12-05T08:39:03;13.05;;;4.80;;
28373;SDS011;15616;40.148;-102.718;2022-12-05T08:41:31;14.45;;;4.95;;
28373;SDS011;15616;40.148;-102.718;2022-12-05T08:43:58;16.45;;;4.82;;
28373;SDS011;15616;40.148;-102.718;2022-12-05T08:46:33;18.55;;;5.15;;
28373;SDS011;15616;40.148;-102.718;2022-12-05T08:49:00;14.63;;;5.15;;
28373;SDS011;15616;40.148;-102.718;2022-12-05T08:51:27;9.80;;;4.80;;
28373;SDS011;15616;40.148;-102.718;2022-12-05T08:53:53;16.25;;;5.00;;
28373;SDS011;15616;40.148;-102.718;2022-12-05T08:56:20;15.38;;;5.35;;
28373;SDS011;15616;40.148;-102.718;2022-12-05T08:58:47;15.23;;;4.43;;
28373;SDS011;15616;40.148;-102.718;2022-12-05T09:01:14;15.55;;;5.38;;
28373;SDS011;15616;40.148;-102.718;2022-12-05T09:03:42;22.48;;;5.28;;
28373;SDS011;15616;40.148;-102.718;2022-12-05T09:08:55;16.23;;;5.53;;
28373;SDS011;15616;40.148;-102.718;2022-12-05T09:11:27;26.17;;;5.43;;
28373;SDS011;15616;40.148;-102.718;2022-12-05T09:13:56;33.95;;;7.00;;
28373;SDS011;15616;40.148;-102.718;2022-12-05T09:16:24;26.10;;;6.38;;
28373;SDS011;15616;40.148;-102.718;2022-12-05T09:18:54;16.35;;;5.20;;
28373;SDS011;15616;40.148;-102.718;2022-12-05T09:21:21;25.67;;;5.82;;
28373;SDS011;15616;40.148;-102.718;2022-12-05T09:23:49;15.35;;;5.78;;
28373;SDS011;15616;40.148;-102.718;2022-12-05T09:26:18;22.15;;;4.93;;
28373;SDS011;15616;40.148;-102.718;2022-12-05T09:28:45;26.23;;;5.25;;
28373;SDS011;15616;40.148;-102.718;2022-12-05T09:31:13;18.13;;;5.80;;
28373;SDS011;15616;40.148;-102.718;2022-12-05T09:33:41;17.48;;;4.82;;
28373;SDS011;15616;40.148;-102.718;2022-12-05T09:36:15;20.80;;;5.03;;
28373;SDS011;15616;40.148;-102.718;2022-12-05T09:38:52;17.92;;;5.53;;
28373;SDS011;15616;40.148;-102.718;2022-12-05T09:50:12;13.32;;;5.13;;
28373;SDS011;15616;40.148;-102.718;2022-12-05T09:55:47;22.63;;;6.18;;
28373;SDS011;15616;40.148;-102.718;2022-12-05T10:00:45;22.70;;;5.65;;
28373;SDS011;15616;40.148;-102.718;2022-12-05T10:03:32;18.75;;;5.35;;
28373;SDS011;15616;40.148;-102.718;2022-12-05T10:08:57;43.87;;;6.20;;
28373;SDS011;15616;40.148;-102.718;2022-12-05T10:16:56;17.65;;;5.07;;
28373;SDS011;15616;40.148;-102.718;2022-12-05T10:19:31;26.27;;;5.55;;
28373;SDS011;15616;40.148;-102.718;2022-12-05T10:22:09;13.75;;;5.30;;
28373;SDS011;15616;40.148;-102.718;2022-12-05T10:24:47;23.20;;;5.38;;
28373;SDS011;15616;40.148;-102.718;2022-12-05T10:27:20;14.50;;;4.82;;
28373;SDS011;15616;40.148;-102.718;2022-12-05T10:30:14;17.88;;;5.05;;
28373;SDS011;15616;40.148;-102.718;2022-12-05T10:32:47;13.45;;;5.00;;
28373;SDS011;15616;40.148;-102.718;2022-12-05T10:35:34;20.73;;;5.07;;
28373;SDS011;15616;40.148;-102.718;2022-12-05T10:43:05;17.58;;;6.07;;
28373;SDS011;15616;40.148;-102.718;2022-12-05T10:45:33;18.98;;;5.43;;
28373;SDS011;15616;40.148;-102.718;2022-12-05T10:48:05;26.48;;;5.78;;
28373;SDS011;15616;40.148;-102.718;2022-12-05T10:50:38;21.38;;;5.35;;
28373;SDS011;15616;40.148;-102.718;2022-12-05T10:53:06;27.52;;;5.35;;
28373;SDS011;15616;40.148;-102.718;2022-12-05T10:55:39;25.90;;;6.20;;
28373;SDS011;15616;40.148;-102.718;2022-12-05T10:58:13;18.23;;;5.43;;
28373;SDS011;15616;40.148;-102.718;2022-12-05T11:01:06;26.75;;;5.55;;
28373;SDS011;15616;40.148;-102.718;2022-12-05T11:03:35;17.88;;;5.60;;
28373;SDS011;15616;40.148;-102.718;2022-12-05T11:09:02;25.45;;;5.25;;
28373;SDS011;15616;40.148;-102.718;2022-12-05T11:11:29;17.45;;;4.93;;
28373;SDS011;15616;40.148;-102.718;2022-12-05T11:14:04;10.05;;;4.95;;
28373;SDS011;15616;40.148;-102.718;2022-12-05T11:16:36;18.88;;;5.72;;
28373;SDS011;15616;40.148;-102.718;2022-12-05T11:19:26;21.13;;;5.60;;
28373;SDS011;15616;40.148;-102.718;2022-12-05T11:21:51;19.35;;;5.43;;
28373;SDS011;15616;40.148;-102.718;2022-12-05T11:24:39;25.13;;;5.50;;
28373;SDS011;15616;40.148;-102.718;2022-12-05T11:32:34;17.15;;;5.15;;
28373;SDS011;15616;40.148;-102.718;2022-12-05T11:35:07;16.88;;;4.60;;
28373;SDS011;15616;40.148;-102.718;2022-12-05T11:43:04;15.40;;;4.60;;
28373;SDS011;15616;40.148;-102.718;2022-12-05T11:48:35;14.35;;;4.18;;
28373;SDS011;15616;40.148;-102.718;2022-12-05T11:54:01;15.75;;;5.20;;
28373;SDS011;15616;40.148;-102.718;2022-12-05T12:12:57;23.67;;;4.95;;
28373;SDS011;15616;40.148;-102.718;2022-12-05T12:20:54;17.98;;;5.22;;
28373;SDS011;15616;40.148;-102.718;2022-12-05T12:23:50;16.13;;;4.80;;
28373;SDS011;15616;40.148;-102.718;2022-12-05T12:26:44;20.67;;;5.03;;
28373;SDS011;15616;40.148;-102.718;2022-12-05T12:43:22;20.23;;;4.95;;
28373;SDS011;15616;40.148;-102.718;2022-12-05T12:46:15;26.73;;;4.95;;
28373;SDS011;15616;40.148;-102.718;2022-12-05T12:51:24;20.05;;;4.70;;
28373;SDS011;15616;40.148;-102.718;2022-12-05T12:54:15;16.88;;;5.30;;
28373;SDS011;15616;40.148;-102.718;2022-12-05T13:02:46;19.95;;;5.18;;
28373;SDS011;15616;40.148;-102.718;2022-12-05T13:08:23;14.50;;;5.28;;
28373;SDS011;15616;40.148;-102.718;2022-12-05T13:10:55;25.15;;;5.60;;
28373;SDS011;15616;40.148;-102.718;2022-12-05T13:13:31;22.20;;;5.15;;
28373;SDS011;15616;40.148;-102.718;2022-12-05T13:16:02;25.13;;;5.70;;
28373;SDS011;15616;40.148;-102.718;2022-12-05T13:18:32;18.63;;;5.25;;
28373;SDS011;15616;40.148;-102.718;2022-12-05T13:20:59;20.20;;;4.95;;
28373;SDS011;15616;40.148;-102.718;2022-12-05T13:23:44;21.73;;;5.65;;
28373;SDS011;15616;40.148;-102.718;2022-12-05T13:26:15;21.85;;;5.07;;
28373;SDS011;15616;40.148;-102.718;2022-12-05T13:28:49;24.60;;;5.50;;
28373;SDS011;15616;40.148;-102.718;2022-12-05T13:31:33;33.63;;;5.10;;
28373;SDS011;15616;40.148;-102.718;2022-12-05T13:35:10;23.05;;;5.30;;
28373;SDS011;15616;40.148;-102.718;2022-12-05T13:37:19;12.68;;;4.72;;
28373;SDS011;15616;40.148;-102.718;2022-12-05T13:43:11;20.48;;;5.72;;
28373;SDS011;15616;40.148;-102.718;2022-12-05T13:45:40;22.48;;;5.18;;
28373;SDS011;15616;40.148;-102.718;2022-12-05T13:48:11;16.60;;;4.60;;
28373;SDS011;15616;40.148;-102.718;2022-12-05T13:51:22;27.75;;;5.47;;
28373;SDS011;15616;40.148;-102.718;2022-12-05T14:05:55;15.02;;;5.15;;
28373;SDS011;15616;40.148;-102.718;2022-12-05T14:08:00;19.42;;;4.65;;
28373;SDS011;15616;40.148;-102.718;2022-12-05T14:11:07;18.60;;;5.18;;
28373;SDS011;15616;40.148;-102.718;2022-12-05T14:13:39;22.88;;;4.85;;
28373;SDS011;15616;40.148;-102.718;2022-12-05T14:16:51;20.77;;;5.18;;
28373;SDS011;15616;40.148;-102.718;2022-12-05T14:19:02;20.75;;;4.95;;
28373;SDS011;15616;40.148;-102.718;2022-12-05T14:21:59;20.85;;;5.00;;
28373;SDS011;15616;40.148;-102.718;2022-12-05T14:24:53;16.13;;;4.93;;
28373;SDS011;15616;40.148;-102.718;2022-12-05T14:33:13;26.23;;;5.38;;
28373;SDS011;15616;40.148;-102.718;2022-12-05T14:35:43;39.20;;;5.60;;
28373;SDS011;15616;40.148;-102.718;2022-12-05T14:40:48;20.30;;;5.13;;
28373;SDS011;15616;40.148;-102.718;2022-12-05T14:43:18;16.55;;;4.63;;
28373;SDS011;15616;40.148;-102.718;2022-12-05T14:50:54;18.67;;;4.97;;
28373;SDS011;15616;40.148;-102.718;2022-12-05T14:53:37;23.95;;;4.88;;
28373;SDS011;15616;40.148;-102.718;2022-12-05T14:58:49;15.25;;;4.72;;
28373;SDS011;15616;40.148;-102.718;2022-12-05T15:01:28;32.08;;;5.53;;
28373;SDS011;15616;40.148;-102.718;2022-12-05T15:06:47;22.47;;;5.73;;
28373;SDS011;15616;40.148;-102.718;2022-12-05T15:09:25;19.70;;;4.47;;
28373;SDS011;15616;40.148;-102.718;2022-12-05T15:11:52;21.17;;;4.82;;
28373;SDS011;15616;40.148;-102.718;2022-12-05T15:14:21;22.52;;;4.95;;
28373;SDS011;15616;40.148;-102.718;2022-12-05T15:16:51;20.50;;;4.80;;
28373;SDS011;15616;40.148;-102.718;2022-12-05T15:19:23;20.90;;;4.93;;
28373;SDS011;15616;40.148;-102.718;2022-12-05T15:21:59;20.52;;;5.35;;
28373;SDS011;15616;40.148;-102.718;2022-12-05T15:24:35;20.33;;;4.63;;
28373;SDS011;15616;40.148;-102.718;2022-12-05T15:27:02;20.85;;;4.93;;
28373;SDS011;15616;40.148;-102.718;2022-12-05T15:29:30;16.55;;;5.20;;
28373;SDS011;15616;40.148;-102.718;2022-12-05T15:31:58;18.77;;;4.75;;
28373;SDS011;15616;40.148;-102.718;2022-12-05T15:34:50;18.70;;;4.68;;
28373;SDS011;15616;40.148;-102.718;2022-12-05T15:40:20;17.50;;;4.78;;
28373;SDS011;15616;40.148;-102.718;2022-12-05T15:42:48;16.42;;;4.85;;
28373;SDS011;15616;40.148;-102.718;2022-12-05T15:45:26;16.98;;;5.35;;
28373;SDS011;15616;40.148;-102.718;2022-12-05T15:50:32;13.15;;;4.50;;
28373;SDS011;15616;40.148;-102.718;2022-12-05T15:58:23;16.55;;;4.53;;
28373;SDS011;15616;40.148;-102.718;2022-12-05T16:01:14;19.02;;;5.25;;
28373;SDS011;15616;40.148;-102.718;2022-12-05T16:04:01;20.27;;;5.33;;
28373;SDS011;15616;40.148;-102.718;2022-12-05T16:06:38;15.60;;;4.32;;
28373;SDS011;15616;40.148;-102.718;2022-12-05T16:09:11;15.15;;;4.30;;
28373;SDS011;15616;40.148;-102.718;2022-12-05T16:11:48;24.02;;;4.88;;
28373;SDS011;15616;40.148;-102.718;2022-12-05T16:14:28;12.10;;;4.22;;
28373;SDS011;15616;40.148;-102.718;2022-12-05T16:16:59;14.38;;;4.55;;
28373;SDS011;15616;40.148;-102.718;2022-12-05T16:19:27;13.55;;;4.03;;
28373;SDS011;15616;40.148;-102.718;2022-12-05T16:22:36;18.42;;;4.60;;
28373;SDS011;15616;40.148;-102.718;2022-12-05T16:24:54;11.27;;;4.50;;
28373;SDS011;15616;40.148;-102.718;2022-12-05T16:27:26;15.52;;;4.45;;
28373;SDS011;15616;40.148;-102.718;2022-12-05T16:32:40;12.13;;;4.22;;
28373;SDS011;15616;40.148;-102.718;2022-12-05T16:38:13;19.27;;;4.60;;
28373;SDS011;15616;40.148;-102.718;2022-12-05T16:43:27;24.63;;;4.72;;
28373;SDS011;15616;40.148;-102.718;2022-12-05T16:48:40;16.15;;;4.05;;
28373;SDS011;15616;40.148;-102.718;2022-12-05T16:51:23;18.35;;;4.38;;
28373;SDS011;15616;40.148;-102.718;2022-12-05T16:53:52;16.17;;;5.05;;
28373;SDS011;15616;40.148;-102.718;2022-12-05T16:56:25;20.67;;;4.80;;
28373;SDS011;15616;40.148;-102.718;2022-12-05T16:58:54;19.25;;;4.80;;
28373;SDS011;15616;40.148;-102.718;2022-12-05T17:01:22;16.08;;;4.38;;
28373;SDS011;15616;40.148;-102.718;2022-12-05T17:03:49;14.32;;;4.53;;
28373;SDS011;15616;40.148;-102.718;2022-12-05T17:06:17;17.20;;;4.60;;
28373;SDS011;15616;40.148;-102.718;2022-12-05T17:08:45;16.83;;;4.40;;
28373;SDS011;15616;40.148;-102.718;2022-12-05T17:11:19;14.32;;;4.05;;
28373;SDS011;15616;40.148;-102.718;2022-12-05T17:13:50;19.20;;;4.78;;
28373;SDS011;15616;40.148;-102.718;2022-12-05T17:16:18;16.30;;;4.68;;
28373;SDS011;15616;40.148;-102.718;2022-12-05T17:18:45;18.15;;;4.53;;
28373;SDS011;15616;40.148;-102.718;2022-12-05T17:21:14;12.38;;;4.35;;
28373;SDS011;15616;40.148;-102.718;2022-12-05T17:23:43;16.58;;;4.60;;
28373;SDS011;15616;40.148;-102.718;2022-12-05T17:26:13;13.77;;;4.15;;
28373;SDS011;15616;40.148;-102.718;2022-12-05T17:28:41;14.65;;;4.03;;
28373;SDS011;15616;40.148;-102.718;2022-12-05T17:31:40;11.85;;;4.25;;
28373;SDS011;15616;40.148;-102.718;2022-12-05T17:34:00;17.30;;;4.55;;
28373;SDS011;15616;40.148;-102.718;2022-12-05T17:36:26;15.98;;;4.43;;